Time;durP1;ratioP1;P1;durP2;ratioP2;P2;SDS_P1;SDS_P2;PMS_P1;PMS_P2;Temp;Humidity;BMP_temperature;BMP_pressure;BME280_temperature;BME280_humidity;BME280_pressure;Samples;Min_cycle;Max_cycle;Signal;HPM_P1;HPM_P2
2024/04/09 00:01:28;;;;;;;;;;;;;;;9.99;100.00;101162.69;106386;1255;76044;-81
2024/04/09 00:03:56;;;;;;;;;;;;;;;9.94;100.00;101164.33;106156;1256;68638;-81
2024/04/09 00:06:25;;;;;;;;;;;;;;;9.89;100.00;101164.02;106119;1257;71253;-85
2024/04/09 00:08:55;;;;;;;;;;;;;;;9.86;100.00;101164.36;105855;1257;62210;-85
2024/04/09 00:11:24;;;;;;;;;;;;;;;9.83;100.00;101164.61;106618;1262;61177;-81
2024/04/09 00:13:53;;;;;;;;;;;;;;;9.82;100.00;101157.71;106267;1254;74678;-81
2024/04/09 00:16:24;;;;;;;;;;;;;;;9.81;100.00;101156.83;106695;1254;68510;-81
2024/04/09 00:18:58;;;;;;;;;;;;;;;9.78;100.00;101158.72;106151;1254;72616;-82
2024/04/09 00:21:28;;;;;;;;;;;;;;;9.76;100.00;101160.11;106245;1258;61381;-85
2024/04/09 00:23:57;;;;;;;;;;;;;;;9.74;100.00;101157.52;106301;1257;60389;-87
2024/04/09 00:26:28;;;;;;;;;;;;;;;9.68;100.00;101153.03;106178;1254;74981;-87
2024/04/09 00:28:55;;;;;;;;;;;;;;;9.63;100.00;101155.21;106139;1256;68417;-87
2024/04/09 00:31:24;;;;;;;;;;;;;;;9.56;100.00;101152.02;106104;1253;72862;-87
2024/04/09 00:33:52;;;;;;;;;;;;;;;9.57;100.00;101152.69;106267;1259;61122;-82
2024/04/09 00:36:20;;;;;;;;;;;;;;;9.59;100.00;101153.16;106446;1259;61154;-86
2024/04/09 00:38:48;;;;;;;;;;;;;;;9.56;100.00;101154.27;106183;1256;74705;-87
2024/04/09 00:41:15;;;;;;;;;;;;;;;9.54;100.00;101156.74;106643;1254;68055;-87
2024/04/09 00:43:43;;;;;;;;;;;;;;;9.53;100.00;101154.55;106366;1257;71145;-82
2024/04/09 00:46:10;;;;;;;;;;;;;;;9.47;100.00;101156.52;106325;1257;61330;-87
2024/04/09 00:48:38;;;;;;;;;;;;;;;9.45;100.00;101155.88;106224;1254;61294;-82
2024/04/09 00:51:06;;;;;;;;;;;;;;;9.42;100.00;101158.63;106408;1254;75028;-82
2024/04/09 00:53:34;;;;;;;;;;;;;;;9.42;100.00;101163.17;106332;1259;69922;-87
2024/04/09 00:56:01;;;;;;;;;;;;;;;9.42;100.00;101162.56;106314;1261;71480;-87
2024/04/09 00:58:29;;;;;;;;;;;;;;;9.42;100.00;101165.45;106214;1254;61248;-82
2024/04/09 01:00:56;;;;;;;;;;;;;;;9.43;100.00;101167.20;106688;1254;61201;-88
2024/04/09 01:03:24;;;;;;;;;;;;;;;9.41;100.00;101168.16;107237;1259;73838;-87
2024/04/09 01:05:52;;;;;;;;;;;;;;;9.39;100.00;101168.80;106364;1254;68555;-82
2024/04/09 01:08:20;;;;;;;;;;;;;;;9.39;100.00;101166.34;106332;1256;73076;-82
2024/04/09 01:10:48;;;;;;;;;;;;;;;9.32;100.00;101165.92;106392;1259;61446;-82
2024/04/09 01:13:16;;;;;;;;;;;;;;;9.28;100.00;101165.82;106201;1258;61314;-86
2024/04/09 01:15:43;;;;;;;;;;;;;;;9.25;100.00;101167.48;106303;1257;74729;-82
2024/04/09 01:18:11;;;;;;;;;;;;;;;9.21;100.00;101169.11;106313;1254;68597;-82
2024/04/09 01:20:38;;;;;;;;;;;;;;;9.18;100.00;101169.41;106189;1254;72731;-87
2024/04/09 01:23:06;;;;;;;;;;;;;;;9.13;100.00;101170.14;106170;1255;61271;-82
2024/04/09 01:25:33;;;;;;;;;;;;;;;9.09;100.00;101171.84;106382;1254;61245;-87
2024/04/09 01:28:01;;;;;;;;;;;;;;;9.06;100.00;101171.47;106319;1255;73539;-86
2024/04/09 01:30:28;;;;;;;;;;;;;;;8.99;100.00;101174.70;106345;1256;68503;-86
2024/04/09 01:32:56;;;;;;;;;;;;;;;8.93;100.00;101175.27;106313;1256;71871;-87
2024/04/09 01:35:23;;;;;;;;;;;;;;;8.91;100.00;101179.04;106442;1256;61362;-81
2024/04/09 01:37:51;;;;;;;;;;;;;;;8.88;100.00;101180.70;106400;1253;61253;-87
2024/04/09 01:40:19;;;;;;;;;;;;;;;8.86;100.00;101178.49;106299;1259;74662;-82
2024/04/09 01:42:46;;;;;;;;;;;;;;;8.85;100.00;101177.77;106270;1253;67636;-82
2024/04/09 01:45:14;;;;;;;;;;;;;;;8.82;100.00;101178.60;106257;1262;71754;-82
2024/04/09 01:47:41;;;;;;;;;;;;;;;8.80;100.00;101175.73;106612;1259;61257;-82
2024/04/09 01:50:10;;;;;;;;;;;;;;;8.81;100.00;101178.64;106199;1254;61504;-86
2024/04/09 01:52:40;;;;;;;;;;;;;;;8.81;100.00;101174.02;106295;1254;74663;-85
2024/04/09 01:55:08;;;;;;;;;;;;;;;8.82;100.00;101172.72;106255;1256;68727;-85
2024/04/09 01:57:35;;;;;;;;;;;;;;;8.79;100.00;101171.73;106321;1254;72999;-80
2024/04/09 02:00:11;;;;;;;;;;;;;;;8.77;100.00;101171.88;106262;1259;61333;-86
2024/04/09 02:02:40;;;;;;;;;;;;;;;8.76;100.00;101164.00;106457;1256;61413;-81
2024/04/09 02:05:08;;;;;;;;;;;;;;;8.70;100.00;101167.47;106772;1259;75084;-81
2024/04/09 02:07:35;;;;;;;;;;;;;;;8.69;100.00;101167.83;106460;1254;66629;-81
2024/04/09 02:10:03;;;;;;;;;;;;;;;8.63;100.00;101167.64;106335;1254;72808;-82
2024/04/09 02:12:30;;;;;;;;;;;;;;;8.58;100.00;101167.34;106388;1254;61272;-81
2024/04/09 02:14:58;;;;;;;;;;;;;;;8.54;100.00;101166.30;106335;1254;62694;-85
2024/04/09 02:17:25;;;;;;;;;;;;;;;8.53;100.00;101168.58;106546;1259;74720;-85
2024/04/09 02:19:53;;;;;;;;;;;;;;;8.46;100.00;101167.26;106624;1254;68534;-85
2024/04/09 02:22:21;;;;;;;;;;;;;;;8.37;100.00;101167.52;106477;1256;71266;-82
2024/04/09 02:24:48;;;;;;;;;;;;;;;8.28;100.00;101170.14;106280;1257;61342;-81
2024/04/09 02:27:16;;;;;;;;;;;;;;;8.24;100.00;101175.19;106188;1257;61260;-81
2024/04/09 02:29:43;;;;;;;;;;;;;;;8.20;100.00;101172.69;106257;1256;73450;-82
2024/04/09 02:32:11;;;;;;;;;;;;;;;8.17;100.00;101181.01;106404;1258;67433;-86
2024/04/09 02:34:39;;;;;;;;;;;;;;;8.12;100.00;101177.21;106279;1256;71502;-82
2024/04/09 02:37:06;;;;;;;;;;;;;;;8.08;100.00;101177.73;106703;1259;61207;-86
2024/04/09 02:39:34;;;;;;;;;;;;;;;8.04;100.00;101180.34;106392;1254;61231;-81
2024/04/09 02:42:03;;;;;;;;;;;;;;;8.00;100.00;101187.61;106387;1259;74659;-86
2024/04/09 02:44:31;;;;;;;;;;;;;;;7.93;100.00;101188.09;106339;1254;68788;-86
2024/04/09 02:46:59;;;;;;;;;;;;;;;7.90;100.00;101186.40;106172;1254;72723;-86
2024/04/09 02:49:27;;;;;;;;;;;;;;;7.88;100.00;101186.48;106200;1254;61460;-80
2024/04/09 02:51:55;;;;;;;;;;;;;;;7.87;100.00;101187.05;106409;1254;61042;-86
2024/04/09 02:54:22;;;;;;;;;;;;;;;7.87;100.00;101189.94;106274;1254;74623;-86
2024/04/09 02:56:50;;;;;;;;;;;;;;;7.86;100.00;101191.98;106321;1257;68058;-86
2024/04/09 02:59:17;;;;;;;;;;;;;;;7.82;100.00;101188.80;106239;1259;72725;-81
2024/04/09 03:01:45;;;;;;;;;;;;;;;7.79;100.00;101191.84;106449;1254;61477;-86
2024/04/09 03:04:13;;;;;;;;;;;;;;;7.76;100.00;101188.84;106445;1254;62059;-87
2024/04/09 03:06:41;;;;;;;;;;;;;;;7.75;100.00;101193.58;107314;1254;74771;-86
2024/04/09 03:09:10;;;;;;;;;;;;;;;7.72;100.00;101196.28;106246;1254;68506;-81
2024/04/09 03:11:38;;;;;;;;;;;;;;;7.69;100.00;101198.06;106384;1259;72357;-86
2024/04/09 03:14:10;;;;;;;;;;;;;;;7.65;100.00;101200.39;106640;1254;61378;-86
2024/04/09 03:16:38;;;;;;;;;;;;;;;7.63;100.00;101198.81;106548;1254;61266;-86
2024/04/09 03:19:06;;;;;;;;;;;;;;;7.65;100.00;101199.20;106151;1255;74773;-81
2024/04/09 03:21:34;;;;;;;;;;;;;;;7.65;100.00;101203.21;106344;1254;67277;-85
2024/04/09 03:24:02;;;;;;;;;;;;;;;7.62;100.00;101200.98;106329;1259;72816;-80
2024/04/09 03:26:30;;;;;;;;;;;;;;;7.61;100.00;101204.17;106528;1253;61256;-85
2024/04/09 03:28:57;;;;;;;;;;;;;;;7.57;100.00;101205.55;106288;1256;61244;-83
2024/04/09 03:31:25;;;;;;;;;;;;;;;7.59;100.00;101205.16;106390;1254;75068;-83
2024/04/09 03:33:53;;;;;;;;;;;;;;;7.62;100.00;101208.48;106867;1253;68794;-84
2024/04/09 03:36:21;;;;;;;;;;;;;;;7.62;100.00;101208.02;106612;1257;72822;-84
2024/04/09 03:38:48;;;;;;;;;;;;;;;7.63;100.00;101206.98;106345;1256;60173;-82
2024/04/09 03:41:16;;;;;;;;;;;;;;;7.66;100.00;101204.92;106385;1254;61253;-84
2024/04/09 03:43:43;;;;;;;;;;;;;;;7.69;100.00;101208.20;106375;1255;73808;-83
2024/04/09 03:46:12;;;;;;;;;;;;;;;7.73;100.00;101205.52;106386;1254;68541;-83
2024/04/09 03:48:43;;;;;;;;;;;;;;;7.78;100.00;101209.73;106309;1259;71462;-84
2024/04/09 03:51:13;;;;;;;;;;;;;;;7.82;100.00;101210.78;106330;1254;61328;-84
2024/04/09 03:53:44;;;;;;;;;;;;;;;7.88;100.00;101218.36;106018;1256;61337;-84
2024/04/09 03:56:12;;;;;;;;;;;;;;;7.96;100.00;101219.17;106139;1254;74725;-84
2024/04/09 03:58:41;;;;;;;;;;;;;;;8.06;100.00;101220.05;106461;1259;68788;-84
2024/04/09 04:01:09;;;;;;;;;;;;;;;8.16;100.00;101220.78;106367;1259;72693;-84
2024/04/09 04:03:39;;;;;;;;;;;;;;;8.29;100.00;101217.09;106500;1256;61840;-83
2024/04/09 04:06:07;;;;;;;;;;;;;;;8.42;100.00;101226.33;106930;1253;61730;-83
2024/04/09 04:08:35;;;;;;;;;;;;;;;8.56;100.00;101228.21;106316;1259;75025;-83
2024/04/09 04:11:03;;;;;;;;;;;;;;;8.71;100.00;101230.37;106577;1253;68459;-83
2024/04/09 04:13:31;;;;;;;;;;;;;;;8.85;100.00;101232.66;106390;1257;72540;-82
2024/04/09 04:15:59;;;;;;;;;;;;;;;9.00;100.00;101233.43;106425;1253;61878;-83
2024/04/09 04:18:27;;;;;;;;;;;;;;;9.17;100.00;101234.50;106493;1259;61129;-83
2024/04/09 04:20:54;;;;;;;;;;;;;;;9.30;100.00;101235.13;106528;1257;75712;-82
2024/04/09 04:23:22;;;;;;;;;;;;;;;9.44;100.00;101235.75;106540;1253;68932;-83
2024/04/09 04:25:54;;;;;;;;;;;;;;;9.57;100.00;101240.79;106968;1253;72779;-83
2024/04/09 04:28:21;;;;;;;;;;;;;;;9.70;100.00;101237.93;106822;1253;61221;-82
2024/04/09 04:30:52;;;;;;;;;;;;;;;9.84;100.00;101238.44;106467;1253;61100;-85
2024/04/09 04:33:19;;;;;;;;;;;;;;;9.98;100.00;101235.91;106711;1258;72444;-85
2024/04/09 04:35:47;;;;;;;;;;;;;;;10.12;100.00;101238.41;106279;1259;68558;-82
2024/04/09 04:38:15;;;;;;;;;;;;;;;10.29;100.00;101240.46;106320;1257;70544;-85
2024/04/09 04:40:45;;;;;;;;;;;;;;;10.48;100.00;101240.16;106252;1257;61337;-85
2024/04/09 04:43:13;;;;;;;;;;;;;;;10.67;100.00;101240.16;106275;1259;60053;-82
2024/04/09 04:45:41;;;;;;;;;;;;;;;10.86;100.00;101237.63;106502;1253;74786;-82
2024/04/09 04:48:09;;;;;;;;;;;;;;;11.04;100.00;101234.48;106404;1257;68819;-83
2024/04/09 04:50:37;;;;;;;;;;;;;;;11.22;100.00;101235.63;106209;1254;71472;-85
2024/04/09 04:53:05;;;;;;;;;;;;;;;11.41;100.00;101236.02;106442;1257;61388;-83
2024/04/09 04:55:32;;;;;;;;;;;;;;;11.57;100.00;101237.56;106413;1256;61292;-84
2024/04/09 04:58:00;;;;;;;;;;;;;;;11.77;100.00;101235.95;106510;1254;74770;-83
2024/04/09 05:00:28;;;;;;;;;;;;;;;11.98;100.00;101237.25;106358;1256;67737;-84
2024/04/09 05:02:56;;;;;;;;;;;;;;;12.20;100.00;101239.44;106468;1254;71836;-85
2024/04/09 05:05:24;;;;;;;;;;;;;;;12.42;100.00;101237.55;106272;1255;61251;-85
2024/04/09 05:07:52;;;;;;;;;;;;;;;12.68;100.00;101233.85;106254;1256;61404;-85
2024/04/09 05:10:19;;;;;;;;;;;;;;;12.87;100.00;101229.61;106289;1259;74731;-85
2024/04/09 05:12:47;;;;;;;;;;;;;;;13.09;100.00;101229.52;106436;1256;71478;-84
2024/04/09 05:15:15;;;;;;;;;;;;;;;13.30;100.00;101229.34;106274;1254;72779;-84
2024/04/09 05:17:43;;;;;;;;;;;;;;;13.50;100.00;101230.83;106617;1257;61347;-84
2024/04/09 05:20:11;;;;;;;;;;;;;;;13.75;100.00;101228.20;106397;1253;61141;-84
2024/04/09 05:22:38;;;;;;;;;;;;;;;13.95;100.00;101231.17;106550;1253;74613;-84
2024/04/09 05:25:06;;;;;;;;;;;;;;;14.18;100.00;101227.73;106314;1254;68502;-86
2024/04/09 05:27:34;;;;;;;;;;;;;;;14.43;100.00;101227.96;106299;1254;71135;-85
2024/04/09 05:30:02;;;;;;;;;;;;;;;14.69;100.00;101227.39;106070;1255;61417;-84
2024/04/09 05:32:31;;;;;;;;;;;;;;;14.94;100.00;101230.98;106388;1254;61381;-84
2024/04/09 05:34:59;;;;;;;;;;;;;;;15.19;100.00;101232.54;106267;1256;74693;-86
2024/04/09 05:37:26;;;;;;;;;;;;;;;15.44;100.00;101234.69;106408;1260;67749;-86
2024/04/09 05:39:54;;;;;;;;;;;;;;;15.68;100.00;101232.56;106321;1253;71841;-86
2024/04/09 05:42:23;;;;;;;;;;;;;;;15.96;100.00;101233.30;106482;1256;61261;-84
2024/04/09 05:44:50;;;;;;;;;;;;;;;16.23;100.00;101230.11;106394;1253;61281;-86
2024/04/09 05:47:18;;;;;;;;;;;;;;;16.52;100.00;101229.27;106458;1254;73244;-86
2024/04/09 05:49:46;;;;;;;;;;;;;;;16.78;100.00;101230.58;106440;1254;68261;-84
2024/04/09 05:52:14;;;;;;;;;;;;;;;17.00;100.00;101231.69;106319;1254;71438;-85
2024/04/09 05:54:43;;;;;;;;;;;;;;;17.30;100.00;101230.70;106200;1259;61245;-85
2024/04/09 05:57:11;;;;;;;;;;;;;;;17.56;100.00;101228.79;106311;1253;61289;-85
2024/04/09 05:59:39;;;;;;;;;;;;;;;17.82;100.00;101226.94;106426;1259;76436;-86
2024/04/09 06:02:07;;;;;;;;;;;;;;;18.09;100.00;101229.56;106252;1253;68544;-86
2024/04/09 06:04:35;;;;;;;;;;;;;;;18.37;100.00;101229.65;106404;1256;72930;-85
2024/04/09 06:07:04;;;;;;;;;;;;;;;18.65;100.00;101227.02;106323;1257;61395;-86
2024/04/09 06:09:31;;;;;;;;;;;;;;;18.96;100.00;101225.48;106349;1253;61287;-85
2024/04/09 06:11:59;;;;;;;;;;;;;;;19.25;100.00;101229.86;106526;1253;76792;-85
2024/04/09 06:14:27;;;;;;;;;;;;;;;19.52;100.00;101230.63;106410;1254;69758;-87
2024/04/09 06:16:54;;;;;;;;;;;;;;;19.77;100.00;101231.58;106306;1259;71537;-85
2024/04/09 06:19:22;;;;;;;;;;;;;;;20.02;100.00;101228.98;106335;1254;61304;-85
2024/04/09 06:21:49;;;;;;;;;;;;;;;20.33;100.00;101226.31;106378;1253;62559;-86
2024/04/09 06:24:17;;;;;;;;;;;;;;;20.65;99.86;101229.73;106357;1258;76896;-86
2024/04/09 06:26:44;;;;;;;;;;;;;;;20.92;96.02;101229.38;106881;1254;69208;-86
2024/04/09 06:29:12;;;;;;;;;;;;;;;21.16;88.75;101228.73;106395;1257;75334;-85
2024/04/09 06:31:39;;;;;;;;;;;;;;;21.36;80.51;101231.34;106497;1254;61256;-86
2024/04/09 06:34:07;;;;;;;;;;;;;;;21.56;73.96;101221.68;106341;1253;61970;-86
2024/04/09 06:36:34;;;;;;;;;;;;;;;21.80;69.81;101228.52;106428;1253;75664;-86
2024/04/09 06:39:02;;;;;;;;;;;;;;;22.06;67.27;101231.58;106398;1253;69543;-86
2024/04/09 06:41:29;;;;;;;;;;;;;;;22.26;63.01;101231.13;106290;1256;71128;-86
2024/04/09 06:43:57;;;;;;;;;;;;;;;22.46;59.44;101227.91;106389;1254;61272;-84
2024/04/09 06:46:25;;;;;;;;;;;;;;;22.64;57.49;101229.36;106745;1259;61791;-84
2024/04/09 06:48:53;;;;;;;;;;;;;;;22.83;55.30;101224.45;106469;1255;75317;-86
2024/04/09 06:51:21;;;;;;;;;;;;;;;22.98;54.21;101222.60;106436;1254;70933;-85
2024/04/09 06:53:49;;;;;;;;;;;;;;;23.10;54.04;101224.02;106386;1254;73898;-84
2024/04/09 06:56:16;;;;;;;;;;;;;;;23.31;55.24;101222.38;106435;1253;62290;-86
2024/04/09 06:58:47;;;;;;;;;;;;;;;23.58;55.14;101224.52;106323;1253;61413;-87
2024/04/09 07:01:15;;;;;;;;;;;;;;;23.86;53.34;101222.81;106424;1253;76885;-86
2024/04/09 07:03:43;;;;;;;;;;;;;;;24.00;50.24;101222.13;106639;1253;67738;-86
2024/04/09 07:06:11;;;;;;;;;;;;;;;24.12;49.10;101219.94;106359;1254;73038;-84
2024/04/09 07:08:39;;;;;;;;;;;;;;;24.27;48.36;101222.64;106426;1254;61220;-83
2024/04/09 07:11:06;;;;;;;;;;;;;;;24.43;46.72;101221.67;106516;1254;61241;-86
2024/04/09 07:13:34;;;;;;;;;;;;;;;24.59;45.06;101218.78;106428;1253;74449;-83
2024/04/09 07:16:07;;;;;;;;;;;;;;;24.65;44.19;101216.63;106215;1255;71093;-86
2024/04/09 07:18:35;;;;;;;;;;;;;;;24.68;43.89;101213.77;106374;1257;64704;-86
2024/04/09 07:21:05;;;;;;;;;;;;;;;24.81;43.66;101214.36;106510;1253;61450;-82
2024/04/09 07:23:33;;;;;;;;;;;;;;;24.96;42.86;101211.63;106861;1258;62410;-83
2024/04/09 07:26:00;;;;;;;;;;;;;;;25.08;42.11;101210.35;106290;1254;67366;-87
2024/04/09 07:28:28;;;;;;;;;;;;;;;25.16;42.36;101211.92;106452;1253;62275;-88
2024/04/09 07:30:55;;;;;;;;;;;;;;;25.23;41.90;101208.52;106309;1259;65830;-82
2024/04/09 07:33:24;;;;;;;;;;;;;;;25.31;41.05;101209.77;106374;1253;61269;-85
2024/04/09 07:35:57;;;;;;;;;;;;;;;25.37;41.68;101207.44;106267;1257;62039;-85
2024/04/09 07:38:25;;;;;;;;;;;;;;;25.46;45.44;101208.77;106358;1259;66247;-83
2024/04/09 07:40:52;;;;;;;;;;;;;;;25.30;48.67;101209.41;106419;1253;61308;-86
2024/04/09 07:43:19;;;;;;;;;;;;;;;24.96;49.91;101213.32;106418;1253;64141;-84
2024/04/09 07:45:54;;;;;;;;;;;;;;;24.57;52.07;101214.57;106401;1253;61228;-85
2024/04/09 07:48:21;;;;;;;;;;;;;;;24.21;51.65;101211.19;106664;1253;61989;-82
2024/04/09 07:50:49;;;;;;;;;;;;;;;23.87;53.03;101209.79;106967;1253;75675;-86
2024/04/09 07:53:17;;;;;;;;;;;;;;;23.73;56.53;101208.88;106444;1254;70979;-87
2024/04/09 07:55:44;;;;;;;;;;;;;;;23.81;59.22;101207.75;106398;1254;75074;-86
2024/04/09 07:58:12;;;;;;;;;;;;;;;23.92;61.89;101204.20;106514;1259;62040;-85
2024/04/09 08:00:41;;;;;;;;;;;;;;;23.94;60.41;101204.42;106433;1253;61232;-86
2024/04/09 08:03:09;;;;;;;;;;;;;;;23.92;55.13;101200.85;106372;1259;74028;-86
2024/04/09 08:05:37;;;;;;;;;;;;;;;23.99;52.93;101193.55;106466;1253;71099;-87
2024/04/09 08:08:04;;;;;;;;;;;;;;;24.02;54.91;101192.45;106433;1259;73940;-86
2024/04/09 08:10:32;;;;;;;;;;;;;;;24.06;58.31;101191.30;106360;1253;61333;-86
2024/04/09 08:13:01;;;;;;;;;;;;;;;24.22;56.55;101189.59;106497;1253;61330;-87
2024/04/09 08:15:29;;;;;;;;;;;;;;;24.36;51.93;101187.14;106431;1258;67882;-87
2024/04/09 08:17:57;;;;;;;;;;;;;;;24.50;49.96;101185.55;106361;1259;70986;-87
2024/04/09 08:20:24;;;;;;;;;;;;;;;24.59;50.18;101187.80;106530;1253;72529;-85
2024/04/09 08:22:53;;;;;;;;;;;;;;;24.75;48.17;101188.02;106427;1253;61273;-84
2024/04/09 08:25:20;;;;;;;;;;;;;;;25.07;43.53;101185.87;106566;1254;61219;-86
2024/04/09 08:27:49;;;;;;;;;;;;;;;25.34;42.85;101177.63;106315;1253;66868;-86
2024/04/09 08:30:23;;;;;;;;;;;;;;;25.68;40.75;101168.84;106699;1253;71069;-85
2024/04/09 08:32:51;;;;;;;;;;;;;;;25.98;37.71;101164.15;106335;1253;74901;-81
2024/04/09 08:35:19;;;;;;;;;;;;;;;26.20;36.94;101163.23;106586;1254;61359;-86
2024/04/09 08:37:47;;;;;;;;;;;;;;;26.37;36.23;101167.83;106517;1254;61426;-84
2024/04/09 08:40:18;;;;;;;;;;;;;;;26.52;36.12;101167.58;106395;1256;76127;-82
2024/04/09 08:42:46;;;;;;;;;;;;;;;26.70;35.69;101155.20;106422;1253;62014;-87
2024/04/09 08:45:15;;;;;;;;;;;;;;;26.89;34.99;101152.98;106298;1257;73403;-84
2024/04/09 08:47:43;;;;;;;;;;;;;;;26.94;34.47;101152.99;106464;1259;61334;-87
2024/04/09 08:50:12;;;;;;;;;;;;;;;26.91;33.98;101152.94;106462;1254;61242;-87
2024/04/09 08:52:43;;;;;;;;;;;;;;;26.87;34.22;101155.11;106462;1253;66852;-87
2024/04/09 08:55:11;;;;;;;;;;;;;;;26.88;33.86;101150.46;106414;1253;68804;-86
2024/04/09 08:57:38;;;;;;;;;;;;;;;26.91;34.35;101154.69;106313;1253;74933;-86
2024/04/09 09:00:06;;;;;;;;;;;;;;;26.96;34.46;101155.58;106357;1256;61266;-86
2024/04/09 09:02:37;;;;;;;;;;;;;;;26.99;34.07;101152.67;106222;1253;62123;-85
2024/04/09 09:05:14;;;;;;;;;;;;;;;26.99;34.05;101151.55;106390;1253;67034;-82
2024/04/09 09:07:42;;;;;;;;;;;;;;;27.07;34.03;101146.63;106574;1253;69559;-86
2024/04/09 09:10:11;;;;;;;;;;;;;;;27.18;33.51;101144.27;106258;1256;64925;-82
2024/04/09 09:12:39;;;;;;;;;;;;;;;27.14;32.91;101137.13;106378;1256;61351;-82
2024/04/09 09:15:08;;;;;;;;;;;;;;;27.11;33.32;101131.05;106412;1253;61213;-82
2024/04/09 09:17:43;;;;;;;;;;;;;;;27.24;32.98;101132.98;106520;1258;76898;-82
2024/04/09 09:20:14;;;;;;;;;;;;;;;27.34;32.55;101129.77;106377;1254;71608;-82
2024/04/09 09:22:42;;;;;;;;;;;;;;;27.37;31.87;101127.34;106399;1253;74948;-87
2024/04/09 09:25:13;;;;;;;;;;;;;;;27.25;31.74;101128.35;106454;1254;61347;-83
2024/04/09 09:27:44;;;;;;;;;;;;;;;27.11;31.84;101123.77;106488;1256;62053;-87
2024/04/09 09:30:13;;;;;;;;;;;;;;;27.09;31.88;101120.99;106369;1258;64728;-86
2024/04/09 09:32:48;;;;;;;;;;;;;;;27.12;32.62;101121.38;106483;1253;61218;-82
2024/04/09 09:35:17;;;;;;;;;;;;;;;27.23;32.11;101118.14;106553;1254;72873;-87
2024/04/09 09:37:48;;;;;;;;;;;;;;;27.36;32.96;101118.41;106940;1257;61342;-83
2024/04/09 09:40:16;;;;;;;;;;;;;;;27.58;32.74;101115.91;106484;1253;61937;-86
2024/04/09 09:42:46;;;;;;;;;;;;;;;27.77;32.15;101121.73;106691;1254;68428;-87
2024/04/09 09:45:14;;;;;;;;;;;;;;;27.88;31.92;101117.81;106529;1259;61189;-87
2024/04/09 09:47:42;;;;;;;;;;;;;;;27.94;32.66;101112.96;106459;1257;74814;-86
2024/04/09 09:50:11;;;;;;;;;;;;;;;28.00;32.34;101115.38;106441;1254;61317;-86
2024/04/09 09:52:45;;;;;;;;;;;;;;;28.10;31.71;101116.14;106691;1253;61396;-86
2024/04/09 09:55:13;;;;;;;;;;;;;;;28.26;30.86;101112.96;106501;1259;75682;-81
2024/04/09 09:57:42;;;;;;;;;;;;;;;28.34;29.83;101109.98;106623;1254;61227;-84
2024/04/09 10:00:10;;;;;;;;;;;;;;;28.34;29.78;101112.30;106383;1256;74750;-87
2024/04/09 10:02:41;;;;;;;;;;;;;;;28.37;29.42;101112.25;106363;1254;61260;-83
2024/04/09 10:05:17;;;;;;;;;;;;;;;28.40;29.40;101106.76;106291;1259;61177;-85
2024/04/09 10:07:48;;;;;;;;;;;;;;;28.34;30.58;101100.03;106272;1253;76894;-81
2024/04/09 10:10:23;;;;;;;;;;;;;;;28.23;30.56;101100.40;106437;1253;61337;-81
2024/04/09 10:12:52;;;;;;;;;;;;;;;28.19;29.96;101099.95;106559;1254;74291;-81
2024/04/09 10:15:24;;;;;;;;;;;;;;;28.25;30.29;101102.41;106399;1259;61045;-84
2024/04/09 10:17:52;;;;;;;;;;;;;;;28.25;30.33;101098.97;106567;1256;61142;-83
2024/04/09 10:20:21;;;;;;;;;;;;;;;28.24;30.00;101098.95;106452;1253;68414;-82
2024/04/09 10:22:48;;;;;;;;;;;;;;;28.32;29.94;101094.95;106358;1260;70995;-88
2024/04/09 10:25:17;;;;;;;;;;;;;;;28.34;29.85;101088.79;106426;1259;64995;-82
2024/04/09 10:27:45;;;;;;;;;;;;;;;28.20;30.31;101090.01;106448;1260;61397;-87
2024/04/09 10:30:16;;;;;;;;;;;;;;;28.05;30.60;101091.70;106359;1254;61880;-84
2024/04/09 10:32:55;;;;;;;;;;;;;;;27.89;30.85;101089.24;106494;1259;68066;-83
2024/04/09 10:35:23;;;;;;;;;;;;;;;27.77;30.85;101085.14;106390;1253;71414;-85
2024/04/09 10:37:51;;;;;;;;;;;;;;;27.72;30.75;101081.95;106490;1259;74336;-83
2024/04/09 10:40:19;;;;;;;;;;;;;;;27.74;31.12;101073.86;105251;1259;1678078;-83
2024/04/09 10:42:47;;;;;;;;;;;;;;;27.90;31.03;101074.41;106474;1253;61930;-87
2024/04/09 10:45:15;;;;;;;;;;;;;;;28.04;30.80;101075.95;106427;1254;77131;-87
2024/04/09 10:47:43;;;;;;;;;;;;;;;28.19;30.49;101068.80;106856;1254;70989;-87
2024/04/09 10:50:13;;;;;;;;;;;;;;;28.35;30.31;101067.52;106905;1255;64690;-83
2024/04/09 10:52:41;;;;;;;;;;;;;;;28.49;30.15;101070.48;106299;1253;61349;-82
2024/04/09 10:55:09;;;;;;;;;;;;;;;28.60;29.79;101065.29;106346;1253;61222;-86
2024/04/09 10:57:36;;;;;;;;;;;;;;;28.66;30.83;101060.93;106494;1253;68068;-86
2024/04/09 11:00:11;;;;;;;;;;;;;;;28.69;30.23;101060.64;106440;1254;70900;-83
2024/04/09 11:02:39;;;;;;;;;;;;;;;28.74;28.85;101056.49;106289;1259;74954;-81
2024/04/09 11:05:09;;;;;;;;;;;;;;;28.80;29.30;101055.41;106430;1257;61225;-81
2024/04/09 11:07:37;;;;;;;;;;;;;;;28.94;29.03;101049.81;106778;1259;61500;-82
2024/04/09 11:10:06;;;;;;;;;;;;;;;29.14;28.71;101050.06;106521;1259;76939;-86
2024/04/09 11:12:35;;;;;;;;;;;;;;;29.24;28.03;101047.63;106474;1254;61881;-83
2024/04/09 11:15:03;;;;;;;;;;;;;;;29.31;27.55;101043.81;106497;1256;66403;-88
2024/04/09 11:17:32;;;;;;;;;;;;;;;29.20;27.94;101044.88;106457;1254;62429;-87
2024/04/09 11:20:14;;;;;;;;;;;;;;;29.04;28.36;101039.52;106328;1253;61140;-83
2024/04/09 11:22:42;;;;;;;;;;;;;;;28.97;28.64;101036.98;106471;1253;76842;-87
2024/04/09 11:25:13;;;;;;;;;;;;;;;28.98;28.22;101036.18;106570;1253;61340;-87
2024/04/09 11:27:41;;;;;;;;;;;;;;;28.96;28.81;101035.45;106422;1254;74869;-87
2024/04/09 11:30:09;;;;;;;;;;;;;;;28.89;28.67;101034.19;106366;1254;62482;-84
2024/04/09 11:32:36;;;;;;;;;;;;;;;29.00;28.68;101030.98;106403;1253;61223;-87
2024/04/09 11:35:14;;;;;;;;;;;;;;;29.11;28.47;101030.18;106447;1253;66836;-87
2024/04/09 11:37:49;;;;;;;;;;;;;;;29.22;28.20;101030.57;106432;1259;61890;-87
2024/04/09 11:40:35;;;;;;;;;;;;;;;29.41;28.06;101023.36;106381;1253;66601;-87
2024/04/09 11:43:02;;;;;;;;;;;;;;;29.61;28.44;101015.33;106422;1256;61247;-86
2024/04/09 11:45:33;;;;;;;;;;;;;;;29.71;27.11;101012.80;106556;1254;62010;-83
2024/04/09 11:48:04;;;;;;;;;;;;;;;29.77;27.87;101004.05;106441;1254;75690;-83
2024/04/09 11:50:32;;;;;;;;;;;;;;;29.88;27.52;101003.92;106318;1253;61347;-85
2024/04/09 11:53:02;;;;;;;;;;;;;;;29.86;27.04;101005.05;106473;1259;72785;-86
2024/04/09 11:55:30;;;;;;;;;;;;;;;29.69;27.03;100999.59;106620;1253;61812;-85
2024/04/09 11:57:57;;;;;;;;;;;;;;;29.50;27.37;101000.80;106611;1254;61387;-84
2024/04/09 12:00:25;;;;;;;;;;;;;;;29.35;27.15;100995.02;106332;1258;73734;-83
2024/04/09 12:02:52;;;;;;;;;;;;;;;29.40;27.26;100992.21;106495;1259;62107;-85
2024/04/09 12:05:20;;;;;;;;;;;;;;;29.60;26.83;100986.20;106432;1253;74900;-84
2024/04/09 12:07:47;;;;;;;;;;;;;;;29.79;27.24;100981.77;106744;1256;61097;-83
2024/04/09 12:10:15;;;;;;;;;;;;;;;30.09;27.62;100978.36;106380;1259;61100;-86
2024/04/09 12:12:43;;;;;;;;;;;;;;;30.61;27.01;100980.48;106264;1257;76840;-82
2024/04/09 12:15:10;;;;;;;;;;;;;;;30.99;26.45;100977.06;106293;1259;61665;-82
2024/04/09 12:17:39;;;;;;;;;;;;;;;31.33;26.29;100969.23;106426;1257;64778;-85
2024/04/09 12:20:07;;;;;;;;;;;;;;;31.54;24.97;100966.98;106300;1259;61230;-85
2024/04/09 12:22:35;;;;;;;;;;;;;;;31.59;24.73;100965.90;106551;1259;61949;-81
2024/04/09 12:25:03;;;;;;;;;;;;;;;31.60;24.83;100967.18;106639;1255;77096;-80
2024/04/09 12:27:30;;;;;;;;;;;;;;;31.73;24.57;100965.02;106727;1259;71032;-83
2024/04/09 12:29:58;;;;;;;;;;;;;;;31.74;23.89;100965.16;106513;1259;65734;-82
2024/04/09 12:32:25;;;;;;;;;;;;;;;31.56;23.74;100958.73;106536;1259;61340;-82